Time;durP1;ratioP1;P1;durP2;ratioP2;P2;SDS_P1;SDS_P2;PMS_P1;PMS_P2;Temp;Humidity;BMP_temperature;BMP_pressure;BME280_temperature;BME280_humidity;BME280_pressure;Samples;Min_cycle;Max_cycle;Signal;HPM_P1;HPM_P2
2022/12/10 00:00:35;;;;;;;79.67;37.53;;;0.70;99.90;;;;;;5019933;28;20068;-80
2022/12/10 00:03:01;;;;;;;79.33;37.90;;;0.70;99.90;;;;;;5021818;28;20041;-80
2022/12/10 00:05:27;;;;;;;89.47;37.20;;;0.70;99.90;;;;;;5022416;28;20977;-79
2022/12/10 00:07:52;;;;;;;83.47;36.13;;;0.70;99.90;;;;;;5023172;28;20025;-79
2022/12/10 00:10:18;;;;;;;307.47;115.43;;;0.70;99.90;;;;;;5026087;28;20052;-80
2022/12/10 00:12:43;;;;;;;88.33;41.57;;;0.70;99.90;;;;;;5024632;28;20048;-80
2022/12/10 00:15:10;;;;;;;84.53;38.47;;;0.70;99.90;;;;;;5025789;28;20033;-80
2022/12/10 00:17:35;;;;;;;77.13;38.57;;;0.70;99.90;;;;;;5026324;28;21412;-79
2022/12/10 00:20:01;;;;;;;93.97;37.80;;;0.60;99.90;;;;;;5023720;28;20095;-79
2022/12/10 00:22:26;;;;;;;83.53;38.47;;;0.60;99.90;;;;;;5023602;28;20030;-79
2022/12/10 00:24:52;;;;;;;83.27;38.00;;;0.60;99.90;;;;;;5024385;28;20040;-80
2022/12/10 00:27:18;;;;;;;93.43;39.43;;;0.60;99.90;;;;;;5046022;28;20033;-80
2022/12/10 00:29:43;;;;;;;87.67;37.77;;;0.60;99.90;;;;;;5024765;28;20021;-80
2022/12/10 00:32:09;;;;;;;87.93;41.53;;;0.60;99.90;;;;;;5012759;28;20037;-80
2022/12/10 00:34:34;;;;;;;85.57;39.23;;;0.60;99.90;;;;;;5023782;28;20030;-80
2022/12/10 00:37:00;;;;;;;84.43;38.90;;;0.60;99.90;;;;;;5025237;28;20036;-80
2022/12/10 00:39:26;;;;;;;84.03;38.87;;;0.60;99.90;;;;;;5024283;28;20037;-80
2022/12/10 00:41:51;;;;;;;80.80;38.80;;;0.60;99.90;;;;;;5024575;28;20029;-80
2022/12/10 00:44:17;;;;;;;83.60;37.00;;;0.60;99.90;;;;;;5010649;28;20167;-80
2022/12/10 00:46:43;;;;;;;86.93;37.67;;;0.60;99.90;;;;;;5023977;28;20037;-80
2022/12/10 00:49:09;;;;;;;77.03;37.27;;;0.60;99.90;;;;;;5023738;28;20025;-80
2022/12/10 00:51:34;;;;;;;78.97;37.43;;;0.60;99.90;;;;;;5024912;28;20136;-80
2022/12/10 00:54:00;;;;;;;84.70;37.37;;;0.60;99.90;;;;;;5024669;28;20727;-80
2022/12/10 00:56:29;;;;;;;76.30;37.83;;;0.60;99.90;;;;;;5017052;28;20028;-79
2022/12/10 00:58:55;;;;;;;76.20;37.40;;;0.60;99.90;;;;;;5029228;28;20025;-80
2022/12/10 01:01:25;;;;;;;68.57;34.70;;;0.60;99.90;;;;;;5030738;28;20032;-80
2022/12/10 01:03:55;;;;;;;69.47;33.50;;;0.60;99.90;;;;;;5029635;28;20031;-80
2022/12/10 01:06:22;;;;;;;68.43;35.57;;;0.60;99.90;;;;;;5028108;28;20039;-79
2022/12/10 01:08:48;;;;;;;67.97;34.13;;;0.60;99.90;;;;;;5030357;28;20091;-80
2022/12/10 01:11:16;;;;;;;67.73;35.07;;;0.60;99.90;;;;;;5027889;28;20049;-80
2022/12/10 01:13:42;;;;;;;67.63;35.10;;;0.60;99.90;;;;;;5029825;28;20086;-80
2022/12/10 01:16:10;;;;;;;70.17;34.63;;;0.60;99.90;;;;;;5029539;28;21450;-80
2022/12/10 01:18:36;;;;;;;69.77;34.70;;;0.60;99.90;;;;;;5015215;28;20025;-80
2022/12/10 01:21:04;;;;;;;69.50;35.13;;;0.60;99.90;;;;;;5029459;28;20381;-80
2022/12/10 01:23:32;;;;;;;69.67;35.63;;;0.60;99.90;;;;;;5028648;28;20109;-80
2022/12/10 01:26:09;;;;;;;68.10;34.47;;;0.60;99.90;;;;;;5029213;28;20091;-80
2022/12/10 01:28:37;;;;;;;73.47;35.40;;;0.60;99.90;;;;;;5028409;28;20422;-80
2022/12/10 01:31:09;;;;;;;69.43;34.60;;;0.60;99.90;;;;;;5029196;28;20021;-80
2022/12/10 01:33:35;;;;;;;69.50;35.30;;;0.50;99.90;;;;;;5028005;28;20024;-80
2022/12/10 01:36:06;;;;;;;69.90;35.87;;;0.60;99.90;;;;;;5028457;28;20396;-80
2022/12/10 01:38:32;;;;;;;66.17;32.63;;;0.50;99.90;;;;;;5028457;28;20029;-78
2022/12/10 01:40:59;;;;;;;70.73;35.30;;;0.50;99.90;;;;;;5031475;28;20087;-78
2022/12/10 01:43:25;;;;;;;70.27;35.43;;;0.50;99.90;;;;;;5031665;28;20033;-78
2022/12/10 01:45:50;;;;;;;72.20;36.13;;;0.50;99.90;;;;;;5031473;28;20021;-78
2022/12/10 01:48:16;;;;;;;70.50;34.50;;;0.50;99.90;;;;;;5030516;28;20882;-77
2022/12/10 01:50:42;;;;;;;69.83;33.97;;;0.50;99.90;;;;;;5030278;28;20045;-78
2022/12/10 01:53:08;;;;;;;74.27;35.50;;;0.50;99.90;;;;;;5019556;28;20037;-77
2022/12/10 01:55:40;;;;;;;65.47;33.10;;;0.50;99.90;;;;;;5031336;28;20014;-77
2022/12/10 01:58:06;;;;;;;67.27;33.03;;;0.50;99.90;;;;;;5031105;28;21136;-77
2022/12/10 02:00:38;;;;;;;63.97;33.40;;;0.50;99.90;;;;;;5032163;28;20164;-78
2022/12/10 02:03:13;;;;;;;65.60;32.60;;;0.50;99.90;;;;;;5029677;28;20025;-78
2022/12/10 02:05:51;;;;;;;62.15;32.88;;;0.50;99.90;;;;;;5030559;28;20040;-78
2022/12/10 02:08:31;;;;;;;68.70;33.60;;;0.50;99.90;;;;;;5030610;28;20078;-77
2022/12/10 02:11:31;;;;;;;67.23;33.80;;;0.50;99.90;;;;;;5029881;28;20022;-78
2022/12/10 02:14:10;;;;;;;71.17;32.13;;;0.50;99.90;;;;;;5028248;28;20036;-77
2022/12/10 02:16:46;;;;;;;70.57;32.47;;;0.50;99.90;;;;;;5030142;28;20541;-78
2022/12/10 02:19:35;;;;;;;71.33;32.93;;;0.50;99.90;;;;;;5030036;28;20070;-78
2022/12/10 02:22:02;;;;;;;66.47;33.00;;;0.40;99.90;;;;;;5032942;28;20085;-78
2022/12/10 02:24:32;;;;;;;71.03;32.87;;;0.40;99.90;;;;;;5029459;28;20040;-77
2022/12/10 02:27:13;;;;;;;68.53;34.43;;;0.40;99.90;;;;;;5027166;28;20116;-78
2022/12/10 02:29:41;;;;;;;73.70;34.67;;;0.40;99.90;;;;;;5028202;28;20105;-78
2022/12/10 02:32:12;;;;;;;68.33;34.83;;;0.40;99.90;;;;;;5028575;28;20036;-78
2022/12/10 02:34:42;;;;;;;72.33;33.30;;;0.40;99.90;;;;;;5026013;28;20120;-77
2022/12/10 02:37:17;;;;;;;71.53;33.20;;;0.40;99.90;;;;;;5029210;28;20025;-77
2022/12/10 02:39:46;;;;;;;63.50;33.42;;;0.40;99.90;;;;;;5025845;28;20040;-77
2022/12/10 02:42:15;;;;;;;68.30;31.57;;;0.40;99.90;;;;;;5029026;28;20083;-78
2022/12/10 02:44:42;;;;;;;68.30;32.97;;;0.40;99.90;;;;;;5028597;28;20490;-78
2022/12/10 02:47:10;;;;;;;71.13;34.40;;;0.40;99.90;;;;;;5028949;28;20031;-77
2022/12/10 02:49:37;;;;;;;64.33;32.00;;;0.40;99.90;;;;;;5028772;28;20029;-77
2022/12/10 02:52:13;;;;;;;68.60;33.37;;;0.40;99.90;;;;;;5027920;28;20045;-78
2022/12/10 02:54:44;;;;;;;64.80;31.70;;;0.40;99.90;;;;;;5029043;28;20538;-77
2022/12/10 02:57:12;;;;;;;67.97;32.07;;;0.40;99.90;;;;;;5027645;28;20185;-77
2022/12/10 02:59:42;;;;;;;67.33;32.97;;;0.40;99.90;;;;;;5028620;28;20751;-77
2022/12/10 03:02:44;;;;;;;65.80;32.93;;;0.40;99.90;;;;;;5027307;28;20370;-79
2022/12/10 03:05:47;;;;;;;69.50;33.33;;;0.40;99.90;;;;;;5024358;28;20440;-79
2022/12/10 03:08:24;;;;;;;74.43;33.73;;;0.40;99.90;;;;;;4988273;28;20050;-79
2022/12/10 03:11:10;;;;;;;68.60;33.90;;;0.40;99.90;;;;;;5027635;28;20378;-79
2022/12/10 03:13:42;;;;;;;69.20;32.57;;;0.30;99.90;;;;;;5027501;28;20104;-79
2022/12/10 03:16:10;;;;;;;67.10;32.40;;;0.40;99.90;;;;;;5017910;28;20029;-79
2022/12/10 03:18:37;;;;;;;62.07;31.80;;;0.30;99.90;;;;;;5028529;28;20017;-79
2022/12/10 03:21:05;;;;;;;60.37;33.07;;;0.40;99.90;;;;;;5027671;28;20029;-79
2022/12/10 03:23:34;;;;;;;68.23;33.67;;;0.30;99.90;;;;;;5027000;28;20026;-79
2022/12/10 03:26:02;;;;;;;64.43;33.77;;;0.30;99.90;;;;;;5027378;28;20029;-79
2022/12/10 03:28:35;;;;;;;60.53;31.87;;;0.40;99.90;;;;;;5026315;28;20537;-79
2022/12/10 03:31:02;;;;;;;63.10;31.70;;;0.40;99.90;;;;;;5026604;28;20029;-79
2022/12/10 03:33:28;;;;;;;60.70;32.73;;;0.30;99.90;;;;;;5026881;28;20026;-79
2022/12/10 03:35:53;;;;;;;64.40;32.70;;;0.40;99.90;;;;;;5025579;28;20041;-80
2022/12/10 03:38:19;;;;;;;64.03;33.70;;;0.40;99.90;;;;;;5025856;28;20513;-79
2022/12/10 03:40:45;;;;;;;63.13;32.33;;;0.30;99.90;;;;;;5027301;28;20026;-79
2022/12/10 03:43:14;;;;;;;61.93;33.10;;;0.40;99.90;;;;;;5016337;28;20026;-79
2022/12/10 03:45:41;;;;;;;60.80;33.47;;;0.30;99.90;;;;;;5026162;28;20039;-79
2022/12/10 03:48:06;;;;;;;58.60;32.40;;;0.30;99.90;;;;;;5025449;28;20026;-79
2022/12/10 03:50:32;;;;;;;62.60;33.03;;;0.40;99.90;;;;;;5026425;28;20033;-78
2022/12/10 03:52:57;;;;;;;58.93;32.77;;;0.30;99.90;;;;;;5027648;28;20057;-79
2022/12/10 03:55:23;;;;;;;63.20;33.33;;;0.30;99.90;;;;;;5027067;28;20029;-79
2022/12/10 03:57:48;;;;;;;63.07;31.33;;;0.40;99.90;;;;;;5026077;28;20496;-79
2022/12/10 04:00:14;;;;;;;59.00;31.00;;;0.30;99.90;;;;;;5027904;28;20052;-79
2022/12/10 04:02:40;;;;;;;64.67;33.13;;;0.30;99.90;;;;;;5026449;28;20124;-79
2022/12/10 04:05:07;;;;;;;61.17;32.20;;;0.30;99.90;;;;;;5027507;28;20025;-79
2022/12/10 04:07:33;;;;;;;61.13;33.30;;;0.40;99.90;;;;;;5025970;28;20045;-79
2022/12/10 04:09:58;;;;;;;60.70;32.93;;;0.30;99.90;;;;;;5027175;28;20084;-79
2022/12/10 04:12:24;;;;;;;60.93;31.97;;;0.30;99.90;;;;;;5026517;28;20033;-79
2022/12/10 04:17:34;;;;;;;57.37;31.47;;;0.30;99.90;;;;;;5026012;28;20037;-79
2022/12/10 04:20:00;;;;;;;65.33;32.90;;;0.30;99.90;;;;;;5025242;28;20033;-79
2022/12/10 04:27:57;;;;;;;59.33;32.77;;;0.40;99.90;;;;;;5027870;28;20109;-78
2022/12/10 04:30:23;;;;;;;55.10;30.30;;;0.40;99.90;;;;;;5028966;28;20457;-78
2022/12/10 04:32:49;;;;;;;63.97;32.93;;;0.30;99.90;;;;;;5028415;28;20125;-78
2022/12/10 04:35:14;;;;;;;55.60;30.90;;;0.30;99.90;;;;;;5029043;28;20036;-78
2022/12/10 04:37:40;;;;;;;53.80;29.27;;;0.30;99.90;;;;;;5028906;28;20406;-78
2022/12/10 04:40:06;;;;;;;53.03;31.13;;;0.40;99.90;;;;;;5027830;28;20029;-78
2022/12/10 04:42:32;;;;;;;60.33;33.17;;;0.40;99.90;;;;;;5028281;28;20104;-78
2022/12/10 04:44:58;;;;;;;58.40;32.73;;;0.40;99.90;;;;;;5027790;28;20517;-78
2022/12/10 04:47:23;;;;;;;59.03;33.67;;;0.40;99.90;;;;;;5027212;28;20053;-78
2022/12/10 04:49:49;;;;;;;56.57;32.23;;;0.40;99.90;;;;;;5027670;28;20109;-78
2022/12/10 04:52:16;;;;;;;60.47;33.10;;;0.40;99.90;;;;;;5026535;28;20045;-78
2022/12/10 04:54:43;;;;;;;61.23;33.03;;;0.40;99.90;;;;;;5030203;28;20072;-78
2022/12/10 04:57:10;;;;;;;57.37;31.57;;;0.40;99.90;;;;;;5028834;28;20509;-78
2022/12/10 04:59:36;;;;;;;59.20;32.87;;;0.40;99.90;;;;;;5031863;28;20036;-78
2022/12/10 05:02:02;;;;;;;58.23;32.30;;;0.40;99.90;;;;;;5031483;28;20029;-78
2022/12/10 05:04:28;;;;;;;57.90;31.50;;;0.40;99.90;;;;;;5030293;28;20036;-78
2022/12/10 05:06:54;;;;;;;61.90;34.10;;;0.40;99.90;;;;;;5029964;28;20041;-78
2022/12/10 05:09:20;;;;;;;103.23;62.23;;;0.40;99.90;;;;;;5031154;28;20044;-78
2022/12/10 05:11:46;;;;;;;80.63;43.73;;;0.40;99.90;;;;;;5032188;28;20022;-78
2022/12/10 05:14:14;;;;;;;78.17;40.37;;;0.40;99.90;;;;;;5032509;28;20060;-78
2022/12/10 05:16:39;;;;;;;86.63;48.90;;;0.40;99.90;;;;;;5031097;28;20041;-78
2022/12/10 05:19:05;;;;;;;69.70;36.00;;;0.40;99.90;;;;;;5032030;28;20462;-78
2022/12/10 05:24:16;;;;;;;66.23;34.57;;;0.40;99.90;;;;;;5031228;28;20048;-78
2022/12/10 05:26:42;;;;;;;70.33;37.90;;;0.40;99.90;;;;;;5031008;28;20091;-78
2022/12/10 05:29:08;;;;;;;59.70;33.37;;;0.40;99.90;;;;;;5032694;28;20029;-78
2022/12/10 05:31:34;;;;;;;63.10;34.63;;;0.40;99.90;;;;;;5029842;28;20030;-80
2022/12/10 05:33:59;;;;;;;60.47;34.47;;;0.30;99.90;;;;;;5028266;28;20033;-79
2022/12/10 05:36:27;;;;;;;66.43;36.33;;;0.30;99.90;;;;;;5029066;28;20037;-79
2022/12/10 05:38:55;;;;;;;66.37;35.57;;;0.30;99.90;;;;;;5015801;28;20062;-79
2022/12/10 05:41:24;;;;;;;72.47;37.03;;;0.30;99.90;;;;;;5028538;28;20029;-79
2022/12/10 05:43:50;;;;;;;83.03;41.60;;;0.30;99.90;;;;;;5027919;28;20044;-80
2022/12/10 05:46:25;;;;;;;67.70;34.90;;;0.30;99.90;;;;;;5028374;28;20030;-80
2022/12/10 05:48:54;;;;;;;73.10;39.92;;;0.30;99.90;;;;;;5030039;28;20026;-79
2022/12/10 05:51:25;;;;;;;74.57;35.70;;;0.30;99.90;;;;;;5027439;28;20036;-79
2022/12/10 05:53:52;;;;;;;74.50;41.97;;;0.30;99.90;;;;;;5030044;28;20474;-80
2022/12/10 05:56:20;;;;;;;103.10;51.07;;;0.30;99.90;;;;;;5026073;28;20021;-79
2022/12/10 05:58:47;;;;;;;86.83;45.03;;;0.30;99.90;;;;;;5027909;28;20116;-79
2022/12/10 06:01:18;;;;;;;105.77;52.80;;;0.30;99.90;;;;;;5026314;28;20028;-80
2022/12/10 06:03:44;;;;;;;96.27;51.77;;;0.20;99.90;;;;;;5027083;28;20432;-79
2022/12/10 06:06:10;;;;;;;83.00;39.70;;;0.30;99.90;;;;;;5026881;28;20096;-80
2022/12/10 06:08:37;;;;;;;78.60;38.87;;;0.20;99.90;;;;;;5028155;28;20025;-80
2022/12/10 06:11:06;;;;;;;81.87;39.23;;;0.30;99.90;;;;;;5027900;28;20045;-80
2022/12/10 06:13:32;;;;;;;82.77;41.73;;;0.20;99.90;;;;;;5028435;28;20446;-80
2022/12/10 06:15:58;;;;;;;77.20;38.10;;;0.30;99.90;;;;;;5029009;28;20092;-78
2022/12/10 06:18:24;;;;;;;74.70;38.50;;;0.20;99.90;;;;;;5031508;28;20775;-77
2022/12/10 06:20:50;;;;;;;74.17;38.00;;;0.30;99.90;;;;;;5030772;28;20025;-77
2022/12/10 06:23:16;;;;;;;72.93;38.40;;;0.30;99.90;;;;;;5031104;28;20025;-77
2022/12/10 06:25:41;;;;;;;73.80;38.30;;;0.30;99.90;;;;;;5033869;28;20067;-78
2022/12/10 06:28:08;;;;;;;79.40;38.23;;;0.30;99.90;;;;;;5029522;28;20588;-79
2022/12/10 06:30:34;;;;;;;73.10;36.90;;;0.30;99.90;;;;;;5030502;28;20083;-86
2022/12/10 06:33:00;;;;;;;73.43;37.37;;;0.30;99.90;;;;;;5027648;28;20049;-79
2022/12/10 06:35:26;;;;;;;74.73;37.53;;;0.30;99.90;;;;;;5025692;28;21049;-79
2022/12/10 06:37:52;;;;;;;72.90;38.23;;;0.30;99.90;;;;;;5027522;28;20635;-79
2022/12/10 06:40:18;;;;;;;72.70;38.53;;;0.30;99.90;;;;;;5026570;28;20037;-79
2022/12/10 06:42:43;;;;;;;67.30;36.77;;;0.30;99.90;;;;;;5026038;28;20049;-79
2022/12/10 06:45:10;;;;;;;73.63;39.47;;;0.30;99.90;;;;;;5027967;28;20029;-78
2022/12/10 06:47:35;;;;;;;70.83;37.50;;;0.30;99.90;;;;;;5013140;28;20077;-79
2022/12/10 06:50:01;;;;;;;78.93;39.03;;;0.30;99.90;;;;;;5027133;28;20045;-79
2022/12/10 06:52:26;;;;;;;65.23;34.43;;;0.30;99.90;;;;;;5028573;28;20029;-79
2022/12/10 06:54:55;;;;;;;72.10;36.00;;;0.30;99.90;;;;;;5028411;28;20021;-79
2022/12/10 06:57:21;;;;;;;68.00;37.03;;;0.30;99.90;;;;;;5028202;28;20428;-79
2022/12/10 06:59:46;;;;;;;65.90;34.43;;;0.30;99.90;;;;;;5028303;28;20021;-78
2022/12/10 07:02:15;;;;;;;70.53;35.17;;;0.30;99.90;;;;;;5020374;28;20639;-77
2022/12/10 07:04:41;;;;;;;65.67;33.00;;;0.30;99.90;;;;;;5031953;28;20029;-77
2022/12/10 07:07:06;;;;;;;61.73;33.03;;;0.30;99.90;;;;;;5015279;28;20090;-77
2022/12/10 07:09:33;;;;;;;68.00;34.73;;;0.30;99.90;;;;;;5028527;28;20029;-77
2022/12/10 07:11:59;;;;;;;64.63;33.43;;;0.30;99.90;;;;;;5030693;28;20030;-76
2022/12/10 07:14:24;;;;;;;65.43;34.73;;;0.30;99.90;;;;;;5033797;28;20034;-76
2022/12/10 07:16:50;;;;;;;72.77;38.97;;;0.30;99.90;;;;;;5041701;28;20347;-76
2022/12/10 07:19:15;;;;;;;66.23;33.90;;;0.30;99.90;;;;;;5031477;28;20036;-76
2022/12/10 07:21:43;;;;;;;67.37;33.47;;;0.30;99.90;;;;;;5030440;28;20044;-76
2022/12/10 07:24:18;;;;;;;60.33;33.63;;;0.30;99.90;;;;;;5032941;28;20116;-79
2022/12/10 07:26:44;;;;;;;;;;;0.30;99.90;;;;;;5027963;28;20362;-76
2022/12/10 07:29:19;;;;;;;60.37;31.43;;;0.30;99.90;;;;;;5027062;28;19984;-75
2022/12/10 07:31:45;;;;;;;61.88;31.70;;;0.30;99.90;;;;;;5031162;28;20506;-75
2022/12/10 07:34:14;;;;;;;60.73;31.23;;;0.30;99.90;;;;;;5031221;28;20033;-75
2022/12/10 07:36:40;;;;;;;59.03;32.17;;;0.30;99.90;;;;;;5029878;28;20052;-75
2022/12/10 07:39:07;;;;;;;63.33;34.67;;;0.30;99.90;;;;;;5029921;28;20474;-75
2022/12/10 07:41:33;;;;;;;64.03;34.50;;;0.30;99.90;;;;;;5031713;28;20036;-76
2022/12/10 07:43:58;;;;;;;65.87;34.23;;;0.30;99.90;;;;;;5029592;28;20455;-76
2022/12/10 07:46:27;;;;;;;62.67;33.67;;;0.40;99.90;;;;;;5030015;28;20044;-76
2022/12/10 07:48:53;;;;;;;66.27;34.87;;;0.40;99.90;;;;;;5028994;28;20120;-76
2022/12/10 07:51:20;;;;;;;70.73;35.17;;;0.40;99.90;;;;;;5027045;28;20030;-78
2022/12/10 07:53:47;;;;;;;65.80;35.20;;;0.40;99.90;;;;;;5014632;28;20029;-79
2022/12/10 07:56:13;;;;;;;71.03;35.43;;;0.40;99.90;;;;;;5022479;28;20178;-79
2022/12/10 07:58:43;;;;;;;88.07;44.60;;;0.40;99.90;;;;;;5029147;28;20105;-76
2022/12/10 08:01:11;;;;;;;63.70;35.20;;;0.40;99.90;;;;;;5032626;28;20413;-75
2022/12/10 08:03:37;;;;;;;86.67;47.03;;;0.40;99.90;;;;;;5029278;28;20185;-75
2022/12/10 08:06:08;;;;;;;65.43;35.60;;;0.40;99.90;;;;;;5029598;28;20128;-75
2022/12/10 08:08:37;;;;;;;68.80;37.47;;;0.40;99.90;;;;;;5030807;28;20030;-75
2022/12/10 08:11:04;;;;;;;62.90;34.40;;;0.40;99.90;;;;;;5030031;28;20484;-76
2022/12/10 08:13:30;;;;;;;64.60;34.20;;;0.40;99.90;;;;;;5025639;28;20418;-78
2022/12/10 08:16:13;;;;;;;61.17;33.77;;;0.40;99.90;;;;;;5027439;28;20029;-78
2022/12/10 08:18:39;;;;;;;64.00;33.47;;;0.40;99.90;;;;;;5028574;28;20039;-75
2022/12/10 08:21:17;;;;;;;57.87;31.37;;;0.50;99.90;;;;;;5032122;28;20048;-76
2022/12/10 08:23:43;;;;;;;62.43;33.47;;;0.40;99.90;;;;;;5030419;28;20030;-76
2022/12/10 08:26:21;;;;;;;60.50;33.33;;;0.50;99.90;;;;;;5031773;28;20038;-76
2022/12/10 08:28:47;;;;;;;64.77;35.10;;;0.40;99.90;;;;;;5032841;28;20045;-75
2022/12/10 08:31:14;;;;;;;73.23;37.37;;;0.40;99.90;;;;;;5031092;28;20017;-76
2022/12/10 08:33:40;;;;;;;61.97;34.83;;;0.40;99.90;;;;;;5032403;28;20053;-76
2022/12/10 08:36:08;;;;;;;63.73;34.67;;;0.40;99.90;;;;;;5033328;28;20442;-76
2022/12/10 08:38:34;;;;;;;68.80;34.03;;;0.50;99.90;;;;;;5032516;28;20071;-76
2022/12/10 08:41:09;;;;;;;60.40;34.60;;;0.40;99.90;;;;;;5031952;28;20037;-76
2022/12/10 08:43:35;;;;;;;64.28;34.25;;;0.50;99.90;;;;;;5033053;28;20021;-76
2022/12/10 08:46:01;;;;;;;57.10;33.30;;;0.50;99.90;;;;;;5032966;28;20478;-76
2022/12/10 08:48:27;;;;;;;61.50;34.37;;;0.50;99.90;;;;;;5035335;28;20028;-76
2022/12/10 08:50:53;;;;;;;60.87;32.57;;;0.60;99.90;;;;;;5034198;28;20025;-76
2022/12/10 08:53:18;;;;;;;58.30;32.17;;;0.60;99.90;;;;;;5032036;28;20088;-76
2022/12/10 08:55:44;;;;;;;63.30;32.03;;;0.60;99.90;;;;;;5032154;28;20428;-76
2022/12/10 08:58:10;;;;;;;58.53;32.00;;;0.60;99.90;;;;;;5032327;28;20402;-76
2022/12/10 09:00:36;;;;;;;61.47;32.90;;;0.60;99.90;;;;;;5032772;28;20482;-76
2022/12/10 09:03:02;;;;;;;60.53;32.70;;;0.70;99.90;;;;;;5033992;28;20367;-75
2022/12/10 09:05:28;;;;;;;58.80;33.93;;;0.70;99.90;;;;;;5034734;28;20032;-76
2022/12/10 09:07:53;;;;;;;62.43;34.43;;;0.70;99.90;;;;;;5022675;28;20030;-76
2022/12/10 09:10:19;;;;;;;62.83;33.53;;;0.70;99.90;;;;;;5036186;28;20029;-76
2022/12/10 09:12:44;;;;;;;60.53;32.43;;;0.70;99.90;;;;;;5034889;28;20412;-76
2022/12/10 09:15:10;;;;;;;62.50;33.43;;;0.70;99.90;;;;;;5017086;28;20018;-76
2022/12/10 09:17:37;;;;;;;60.10;33.70;;;0.70;99.90;;;;;;5031064;28;20025;-76
2022/12/10 09:20:04;;;;;;;65.33;34.13;;;0.70;99.90;;;;;;5030516;28;20108;-76
2022/12/10 09:22:29;;;;;;;60.80;32.93;;;0.70;99.90;;;;;;5030457;28;20026;-76
2022/12/10 09:24:55;;;;;;;59.40;31.47;;;0.70;99.90;;;;;;5032144;28;21463;-76
2022/12/10 09:27:21;;;;;;;59.33;31.63;;;0.70;99.90;;;;;;5031479;28;20049;-76
2022/12/10 09:29:46;;;;;;;62.23;32.73;;;0.70;99.90;;;;;;5031641;28;20041;-76
2022/12/10 09:32:12;;;;;;;60.40;31.93;;;0.70;99.90;;;;;;5030013;28;20450;-76
2022/12/10 09:34:37;;;;;;;61.27;33.33;;;0.70;99.90;;;;;;5031784;28;20049;-79
2022/12/10 09:37:03;;;;;;;56.00;30.90;;;0.70;99.90;;;;;;5027585;28;20030;-76
2022/12/10 09:39:29;;;;;;;63.20;33.17;;;0.70;99.90;;;;;;5017185;28;20108;-75
2022/12/10 09:42:16;;;;;;;62.73;31.87;;;0.70;99.90;;;;;;5039352;28;20033;-76
2022/12/10 09:45:19;;;;;;;67.53;34.17;;;0.70;99.90;;;;;;5029906;28;20108;-79
2022/12/10 09:48:25;;;;;;;60.87;31.97;;;0.70;99.90;;;;;;5023940;28;20041;-79
2022/12/10 09:51:14;;;;;;;71.63;34.17;;;0.70;99.90;;;;;;5025422;28;20102;-79
2022/12/10 09:53:42;;;;;;;64.00;31.83;;;0.70;99.90;;;;;;5027592;28;20021;-79
2022/12/10 09:56:20;;;;;;;68.93;33.87;;;0.60;99.90;;;;;;5023497;28;20049;-79
2022/12/10 09:58:45;;;;;;;66.60;31.87;;;0.70;99.90;;;;;;5025367;28;20056;-78
2022/12/10 10:01:15;;;;;;;63.17;31.83;;;0.70;99.90;;;;;;5029292;28;20784;-80
2022/12/10 10:03:42;;;;;;;61.87;31.73;;;0.70;99.90;;;;;;5029590;28;20021;-79
2022/12/10 10:06:13;;;;;;;63.90;32.30;;;0.70;99.90;;;;;;5028538;28;20061;-79
2022/12/10 10:08:46;;;;;;;65.80;33.37;;;0.70;99.90;;;;;;5027971;28;20076;-79
2022/12/10 10:11:17;;;;;;;68.07;34.03;;;0.70;99.90;;;;;;5013507;28;20051;-79
2022/12/10 10:13:51;;;;;;;65.60;34.37;;;0.70;99.90;;;;;;5026933;28;20021;-79
2022/12/10 10:16:32;;;;;;;70.73;35.27;;;0.70;99.90;;;;;;5027044;28;20100;-79
2022/12/10 10:18:59;;;;;;;68.37;32.90;;;0.70;99.90;;;;;;5027348;28;20359;-79
2022/12/10 10:21:33;;;;;;;64.47;32.23;;;0.70;99.90;;;;;;5026808;28;20032;-78
2022/12/10 10:23:59;;;;;;;68.17;32.67;;;0.60;99.90;;;;;;5026700;28;20037;-78
2022/12/10 10:26:28;;;;;;;70.27;34.00;;;0.60;99.90;;;;;;5028386;28;20037;-78
2022/12/10 10:29:01;;;;;;;58.77;31.07;;;0.70;99.90;;;;;;5030133;28;20013;-69
2022/12/10 10:31:32;;;;;;;63.90;31.63;;;0.60;99.90;;;;;;5029291;28;20021;-71
2022/12/10 10:34:03;;;;;;;60.73;30.73;;;0.70;99.90;;;;;;5027694;28;20034;-77
2022/12/10 10:36:35;;;;;;;58.23;29.87;;;0.70;99.90;;;;;;5027453;28;20033;-79
2022/12/10 10:39:21;;;;;;;61.33;31.33;;;0.60;99.90;;;;;;5031482;28;20357;-75
2022/12/10 10:41:52;;;;;;;66.23;32.67;;;0.60;99.90;;;;;;5029867;28;20034;-77
2022/12/10 10:44:21;;;;;;;66.63;33.33;;;0.60;99.90;;;;;;5026166;28;20030;-76
2022/12/10 10:46:49;;;;;;;66.33;32.97;;;0.60;99.90;;;;;;5028352;28;20025;-76
2022/12/10 10:49:19;;;;;;;66.33;34.67;;;0.70;99.90;;;;;;5029250;28;20037;-76
2022/12/10 10:51:45;;;;;;;66.43;33.23;;;0.70;99.90;;;;;;5027560;28;20493;-76
2022/12/10 10:54:11;;;;;;;65.87;33.07;;;0.60;99.90;;;;;;5027375;28;20017;-76
2022/12/10 10:56:43;;;;;;;64.07;32.50;;;0.60;99.90;;;;;;5029551;28;20409;-76
2022/12/10 10:59:33;;;;;;;62.03;31.93;;;0.70;99.90;;;;;;5027318;28;20099;-76
2022/12/10 11:02:20;;;;;;;54.90;30.30;;;0.70;99.90;;;;;;5027057;28;20033;-76
2022/12/10 11:04:58;;;;;;;60.13;31.47;;;0.70;99.90;;;;;;5026967;28;20528;-76
2022/12/10 11:07:39;;;;;;;58.73;31.67;;;0.70;99.90;;;;;;5027713;28;20136;-76
2022/12/10 11:10:20;;;;;;;59.77;32.23;;;0.70;99.90;;;;;;5025945;28;20018;-76
2022/12/10 11:12:57;;;;;;;56.53;30.07;;;0.70;99.90;;;;;;5027545;28;20032;-76
2022/12/10 11:15:22;;;;;;;57.23;31.83;;;0.70;99.90;;;;;;5027279;28;20060;-76
2022/12/10 11:17:50;;;;;;;55.80;31.27;;;0.70;99.90;;;;;;5028120;28;20474;-76
2022/12/10 11:20:22;;;;;;;58.50;33.03;;;0.70;99.90;;;;;;5023104;28;20092;-76
2022/12/10 11:22:56;;;;;;;59.40;31.23;;;0.80;99.90;;;;;;5021105;28;20069;-76
2022/12/10 11:25:55;;;;;;;53.47;31.97;;;0.80;99.90;;;;;;5019882;28;20136;-77
2022/12/10 11:28:21;;;;;;;58.97;32.13;;;0.80;99.90;;;;;;5019762;28;20042;-77
2022/12/10 11:30:59;;;;;;;55.20;30.77;;;0.80;99.90;;;;;;5019856;28;20044;-77
2022/12/10 11:33:37;;;;;;;61.13;31.87;;;0.80;99.90;;;;;;5018664;28;20123;-78
2022/12/10 11:36:11;;;;;;;61.03;32.07;;;0.80;99.90;;;;;;5037071;28;21340;-77
2022/12/10 11:39:10;;;;;;;55.75;31.38;;;0.80;99.90;;;;;;5019265;28;20033;-77
2022/12/10 11:41:41;;;;;;;60.37;32.73;;;0.90;99.90;;;;;;5016730;28;20041;-77
2022/12/10 11:44:07;;;;;;;59.97;31.40;;;0.90;99.90;;;;;;5014734;28;20343;-77
2022/12/10 11:47:01;;;;;;;61.97;32.63;;;0.90;99.90;;;;;;5014607;28;20033;-77
2022/12/10 11:49:48;;;;;;;59.50;33.20;;;0.90;99.90;;;;;;5015028;28;20117;-77
2022/12/10 11:52:48;;;;;;;63.77;33.50;;;0.90;99.90;;;;;;5013802;28;20052;-77
2022/12/10 11:55:52;;;;;;;63.83;34.83;;;0.90;99.90;;;;;;5016080;28;20079;-77
2022/12/10 11:58:43;;;;;;;60.80;34.70;;;0.90;99.90;;;;;;5015445;28;20100;-77
2022/12/10 12:02:03;;;;;;;55.70;31.70;;;0.90;99.90;;;;;;4988685;28;20042;-77
2022/12/10 12:05:14;;;;;;;54.77;32.03;;;0.90;99.90;;;;;;5001933;28;20262;-77
2022/12/10 12:07:57;;;;;;;57.50;30.63;;;0.90;99.90;;;;;;4947988;28;20062;-77
2022/12/10 12:10:51;;;;;;;59.07;31.70;;;0.80;99.90;;;;;;4996016;28;20026;-77
2022/12/10 12:13:49;;;;;;;55.30;30.57;;;0.80;99.90;;;;;;4994355;28;20061;-77
2022/12/10 12:16:55;;;;;;;52.57;30.20;;;0.80;99.90;;;;;;4979510;28;20049;-77
2022/12/10 12:19:38;;;;;;;;;;;0.80;99.90;;;;;;4979495;28;21303;-77
2022/12/10 12:22:15;;;;;;;53.20;30.30;;;0.80;99.90;;;;;;4995409;28;19917;-77
2022/12/10 12:24:45;;;;;;;57.27;31.87;;;0.80;99.90;;;;;;5000786;28;20034;-82
2022/12/10 12:27:27;;;;;;;57.90;32.27;;;0.80;99.90;;;;;;4977945;28;20084;-78
2022/12/10 12:30:06;;;;;;;55.50;30.43;;;0.80;99.90;;;;;;4981023;28;20025;-77
2022/12/10 12:32:53;;;;;;;54.30;30.37;;;0.80;99.90;;;;;;4973996;28;20505;-78
2022/12/10 12:35:40;;;;;;;54.43;30.37;;;0.70;99.90;;;;;;4965263;28;20474;-79
2022/12/10 12:38:23;;;;;;;52.67;29.70;;;0.70;99.90;;;;;;4990146;28;20120;-78
2022/12/10 12:41:11;;;;;;;56.63;32.60;;;0.70;99.90;;;;;;4998933;28;20636;-78
2022/12/10 12:43:51;;;;;;;56.43;33.37;;;0.70;99.90;;;;;;4999940;28;20037;-78
2022/12/10 12:46:27;;;;;;;58.80;33.03;;;0.70;99.90;;;;;;4999847;28;20030;-78
2022/12/10 12:49:10;;;;;;;59.97;32.33;;;0.70;99.90;;;;;;4997944;28;20044;-78
2022/12/10 12:51:45;;;;;;;59.57;33.07;;;0.70;99.90;;;;;;4992158;28;20049;-78
2022/12/10 12:54:12;;;;;;;54.03;31.35;;;0.60;99.90;;;;;;4997570;28;20033;-78
2022/12/10 12:56:59;;;;;;;62.30;34.17;;;0.70;99.90;;;;;;4997265;28;20026;-78
2022/12/10 12:59:45;;;;;;;59.00;34.30;;;0.70;99.90;;;;;;4998080;28;20040;-78
2022/12/10 13:02:57;;;;;;;63.20;35.83;;;0.60;99.90;;;;;;4996591;28;20037;-77
2022/12/10 13:05:30;;;;;;;61.63;34.03;;;0.60;99.90;;;;;;4999894;28;20026;-78
2022/12/10 13:08:18;;;;;;;63.03;34.47;;;0.60;99.90;;;;;;5012924;28;20068;-78